sensor_id;sensor_type;location;lat;lon;timestamp;P1;durP1;ratioP1;P2;durP2;ratioP2
31004;SDS011;17676;52.254;4.490;2023-02-13T00:02:05;41.22;;;26.33;;
31004;SDS011;17676;52.254;4.490;2023-02-13T00:04:30;41.47;;;26.77;;
31004;SDS011;17676;52.254;4.490;2023-02-13T00:06:56;37.38;;;24.15;;
31004;SDS011;17676;52.254;4.490;2023-02-13T00:09:21;39.20;;;25.42;;
31004;SDS011;17676;52.254;4.490;2023-02-13T00:11:46;40.33;;;25.27;;
31004;SDS011;17676;52.254;4.490;2023-02-13T00:14:11;38.30;;;24.67;;
31004;SDS011;17676;52.254;4.490;2023-02-13T00:16:37;38.55;;;24.50;;
31004;SDS011;17676;52.254;4.490;2023-02-13T00:19:02;44.88;;;26.23;;
31004;SDS011;17676;52.254;4.490;2023-02-13T00:21:27;37.22;;;24.63;;
31004;SDS011;17676;52.254;4.490;2023-02-13T00:23:53;42.42;;;25.00;;
31004;SDS011;17676;52.254;4.490;2023-02-13T00:26:18;39.80;;;25.13;;
31004;SDS011;17676;52.254;4.490;2023-02-13T00:28:43;42.00;;;26.38;;
31004;SDS011;17676;52.254;4.490;2023-02-13T00:31:16;39.65;;;25.55;;
31004;SDS011;17676;52.254;4.490;2023-02-13T00:33:41;39.47;;;26.35;;
31004;SDS011;17676;52.254;4.490;2023-02-13T00:36:13;37.97;;;24.83;;
31004;SDS011;17676;52.254;4.490;2023-02-13T00:38:40;40.88;;;26.52;;
31004;SDS011;17676;52.254;4.490;2023-02-13T00:41:06;38.88;;;24.70;;
31004;SDS011;17676;52.254;4.490;2023-02-13T00:43:32;41.60;;;26.92;;
31004;SDS011;17676;52.254;4.490;2023-02-13T00:45:57;39.33;;;24.30;;
31004;SDS011;17676;52.254;4.490;2023-02-13T00:48:27;38.88;;;25.55;;
31004;SDS011;17676;52.254;4.490;2023-02-13T00:50:53;39.88;;;24.95;;
31004;SDS011;17676;52.254;4.490;2023-02-13T00:53:19;38.53;;;25.20;;
31004;SDS011;17676;52.254;4.490;2023-02-13T00:55:45;40.65;;;26.90;;
31004;SDS011;17676;52.254;4.490;2023-02-13T00:58:10;37.03;;;24.92;;
31004;SDS011;17676;52.254;4.490;2023-02-13T01:00:36;42.05;;;26.85;;
31004;SDS011;17676;52.254;4.490;2023-02-13T01:03:02;39.38;;;24.98;;
31004;SDS011;17676;52.254;4.490;2023-02-13T01:05:27;40.47;;;24.58;;
31004;SDS011;17676;52.254;4.490;2023-02-13T01:07:53;37.83;;;24.48;;
31004;SDS011;17676;52.254;4.490;2023-02-13T01:10:18;41.25;;;26.35;;
31004;SDS011;17676;52.254;4.490;2023-02-13T01:12:44;43.60;;;26.40;;
31004;SDS011;17676;52.254;4.490;2023-02-13T01:15:09;40.22;;;25.92;;
31004;SDS011;17676;52.254;4.490;2023-02-13T01:17:34;38.42;;;24.17;;
31004;SDS011;17676;52.254;4.490;2023-02-13T01:20:00;42.65;;;25.60;;
31004;SDS011;17676;52.254;4.490;2023-02-13T01:22:26;40.35;;;25.67;;
31004;SDS011;17676;52.254;4.490;2023-02-13T01:24:51;42.13;;;26.30;;
31004;SDS011;17676;52.254;4.490;2023-02-13T01:27:16;41.60;;;26.00;;
31004;SDS011;17676;52.254;4.490;2023-02-13T01:29:41;39.65;;;25.48;;
31004;SDS011;17676;52.254;4.490;2023-02-13T01:32:07;38.88;;;24.13;;
31004;SDS011;17676;52.254;4.490;2023-02-13T01:34:32;37.28;;;24.20;;
31004;SDS011;17676;52.254;4.490;2023-02-13T01:36:58;41.90;;;25.88;;
31004;SDS011;17676;52.254;4.490;2023-02-13T01:39:23;45.10;;;25.38;;
31004;SDS011;17676;52.254;4.490;2023-02-13T01:41:48;41.55;;;25.67;;
31004;SDS011;17676;52.254;4.490;2023-02-13T01:46:58;38.28;;;23.95;;
31004;SDS011;17676;52.254;4.490;2023-02-13T01:49:24;38.38;;;24.13;;
31004;SDS011;17676;52.254;4.490;2023-02-13T01:51:50;39.88;;;24.05;;
31004;SDS011;17676;52.254;4.490;2023-02-13T01:54:21;37.15;;;22.33;;
31004;SDS011;17676;52.254;4.490;2023-02-13T01:56:49;40.42;;;24.70;;
31004;SDS011;17676;52.254;4.490;2023-02-13T01:59:16;36.80;;;23.40;;
31004;SDS011;17676;52.254;4.490;2023-02-13T02:01:43;38.97;;;24.00;;
31004;SDS011;17676;52.254;4.490;2023-02-13T02:04:12;36.50;;;22.85;;
31004;SDS011;17676;52.254;4.490;2023-02-13T02:06:41;39.85;;;24.92;;
31004;SDS011;17676;52.254;4.490;2023-02-13T02:09:09;39.65;;;23.52;;
31004;SDS011;17676;52.254;4.490;2023-02-13T02:11:40;39.15;;;23.15;;
31004;SDS011;17676;52.254;4.490;2023-02-13T02:14:06;39.17;;;24.23;;
31004;SDS011;17676;52.254;4.490;2023-02-13T02:16:34;40.70;;;24.90;;
31004;SDS011;17676;52.254;4.490;2023-02-13T02:19:01;39.70;;;25.35;;
31004;SDS011;17676;52.254;4.490;2023-02-13T02:21:38;39.13;;;23.40;;
31004;SDS011;17676;52.254;4.490;2023-02-13T02:39:05;39.63;;;24.33;;
31004;SDS011;17676;52.254;4.490;2023-02-13T02:49:34;37.45;;;23.90;;
31004;SDS011;17676;52.254;4.490;2023-02-13T02:52:23;40.78;;;24.08;;
31004;SDS011;17676;52.254;4.490;2023-02-13T02:54:52;40.03;;;24.15;;
31004;SDS011;17676;52.254;4.490;2023-02-13T02:57:37;40.40;;;24.92;;
31004;SDS011;17676;52.254;4.490;2023-02-13T03:00:24;41.92;;;24.73;;
31004;SDS011;17676;52.254;4.490;2023-02-13T03:03:19;41.30;;;24.60;;
31004;SDS011;17676;52.254;4.490;2023-02-13T03:06:14;38.75;;;23.90;;
31004;SDS011;17676;52.254;4.490;2023-02-13T03:08:41;41.88;;;24.92;;
31004;SDS011;17676;52.254;4.490;2023-02-13T03:11:25;41.40;;;25.75;;
31004;SDS011;17676;52.254;4.490;2023-02-13T03:14:10;41.17;;;24.63;;
31004;SDS011;17676;52.254;4.490;2023-02-13T03:16:36;41.05;;;23.58;;
31004;SDS011;17676;52.254;4.490;2023-02-13T03:22:27;40.97;;;22.88;;
31004;SDS011;17676;52.254;4.490;2023-02-13T03:25:03;41.47;;;24.50;;
31004;SDS011;17676;52.254;4.490;2023-02-13T03:32:44;43.13;;;26.42;;
31004;SDS011;17676;52.254;4.490;2023-02-13T03:35:33;43.22;;;25.98;;
31004;SDS011;17676;52.254;4.490;2023-02-13T03:40:50;42.47;;;25.70;;
31004;SDS011;17676;52.254;4.490;2023-02-13T03:43:38;45.55;;;27.17;;
31004;SDS011;17676;52.254;4.490;2023-02-13T03:46:06;44.97;;;26.42;;
31004;SDS011;17676;52.254;4.490;2023-02-13T03:48:33;43.70;;;27.73;;
31004;SDS011;17676;52.254;4.490;2023-02-13T03:51:22;45.13;;;28.00;;
31004;SDS011;17676;52.254;4.490;2023-02-13T03:53:50;44.85;;;27.77;;
31004;SDS011;17676;52.254;4.490;2023-02-13T03:56:17;45.65;;;28.15;;
31004;SDS011;17676;52.254;4.490;2023-02-13T03:59:01;46.60;;;28.70;;
31004;SDS011;17676;52.254;4.490;2023-02-13T04:02:06;46.70;;;29.15;;
31004;SDS011;17676;52.254;4.490;2023-02-13T04:04:35;48.03;;;30.02;;
31004;SDS011;17676;52.254;4.490;2023-02-13T04:07:04;52.25;;;30.92;;
31004;SDS011;17676;52.254;4.490;2023-02-13T04:09:31;48.70;;;29.83;;
31004;SDS011;17676;52.254;4.490;2023-02-13T04:12:17;55.40;;;33.17;;
31004;SDS011;17676;52.254;4.490;2023-02-13T04:17:36;49.28;;;31.10;;
31004;SDS011;17676;52.254;4.490;2023-02-13T04:20:03;49.58;;;31.65;;
31004;SDS011;17676;52.254;4.490;2023-02-13T04:22:29;51.42;;;31.83;;
31004;SDS011;17676;52.254;4.490;2023-02-13T04:24:54;49.85;;;32.05;;
31004;SDS011;17676;52.254;4.490;2023-02-13T04:27:20;54.22;;;33.38;;
31004;SDS011;17676;52.254;4.490;2023-02-13T04:29:45;54.47;;;33.67;;
31004;SDS011;17676;52.254;4.490;2023-02-13T04:32:11;56.40;;;34.67;;
31004;SDS011;17676;52.254;4.490;2023-02-13T04:34:38;53.83;;;32.83;;
31004;SDS011;17676;52.254;4.490;2023-02-13T04:37:03;53.17;;;32.53;;
31004;SDS011;17676;52.254;4.490;2023-02-13T04:39:33;56.20;;;32.45;;
31004;SDS011;17676;52.254;4.490;2023-02-13T04:41:58;56.08;;;34.20;;
31004;SDS011;17676;52.254;4.490;2023-02-13T04:44:23;56.45;;;33.33;;
31004;SDS011;17676;52.254;4.490;2023-02-13T04:46:49;48.75;;;32.20;;
31004;SDS011;17676;52.254;4.490;2023-02-13T04:49:14;53.15;;;34.33;;
31004;SDS011;17676;52.254;4.490;2023-02-13T04:51:40;57.00;;;34.25;;
31004;SDS011;17676;52.254;4.490;2023-02-13T04:54:05;56.75;;;33.60;;
31004;SDS011;17676;52.254;4.490;2023-02-13T04:56:30;54.17;;;32.63;;
31004;SDS011;17676;52.254;4.490;2023-02-13T04:58:56;53.05;;;33.15;;
31004;SDS011;17676;52.254;4.490;2023-02-13T05:01:21;53.42;;;34.40;;
31004;SDS011;17676;52.254;4.490;2023-02-13T05:03:46;53.75;;;33.85;;
31004;SDS011;17676;52.254;4.490;2023-02-13T05:06:12;51.72;;;31.98;;
31004;SDS011;17676;52.254;4.490;2023-02-13T05:08:37;55.08;;;32.92;;
31004;SDS011;17676;52.254;4.490;2023-02-13T05:11:02;52.42;;;33.10;;
31004;SDS011;17676;52.254;4.490;2023-02-13T05:13:27;51.17;;;30.67;;
31004;SDS011;17676;52.254;4.490;2023-02-13T05:15:53;47.13;;;30.75;;
31004;SDS011;17676;52.254;4.490;2023-02-13T05:18:18;52.28;;;32.17;;
31004;SDS011;17676;52.254;4.490;2023-02-13T05:20:44;55.60;;;32.72;;
31004;SDS011;17676;52.254;4.490;2023-02-13T05:23:13;50.65;;;31.80;;
31004;SDS011;17676;52.254;4.490;2023-02-13T05:25:48;49.83;;;30.63;;
31004;SDS011;17676;52.254;4.490;2023-02-13T05:28:14;52.88;;;31.23;;
31004;SDS011;17676;52.254;4.490;2023-02-13T05:30:58;46.20;;;29.25;;
31004;SDS011;17676;52.254;4.490;2023-02-13T05:33:23;52.92;;;30.65;;
31004;SDS011;17676;52.254;4.490;2023-02-13T05:35:48;50.88;;;30.48;;
31004;SDS011;17676;52.254;4.490;2023-02-13T05:38:14;52.67;;;31.50;;
31004;SDS011;17676;52.254;4.490;2023-02-13T05:40:39;51.50;;;29.90;;
31004;SDS011;17676;52.254;4.490;2023-02-13T05:43:04;49.05;;;29.58;;
31004;SDS011;17676;52.254;4.490;2023-02-13T05:45:29;47.45;;;29.70;;
31004;SDS011;17676;52.254;4.490;2023-02-13T05:47:55;49.85;;;29.85;;
31004;SDS011;17676;52.254;4.490;2023-02-13T05:50:20;53.17;;;30.70;;
31004;SDS011;17676;52.254;4.490;2023-02-13T05:52:45;49.22;;;29.35;;
31004;SDS011;17676;52.254;4.490;2023-02-13T05:55:10;48.05;;;28.60;;
31004;SDS011;17676;52.254;4.490;2023-02-13T05:57:35;47.80;;;30.65;;
31004;SDS011;17676;52.254;4.490;2023-02-13T06:00:01;48.38;;;28.90;;
31004;SDS011;17676;52.254;4.490;2023-02-13T06:02:27;49.42;;;30.27;;
31004;SDS011;17676;52.254;4.490;2023-02-13T06:04:53;47.10;;;28.88;;
31004;SDS011;17676;52.254;4.490;2023-02-13T06:07:19;48.55;;;28.73;;
31004;SDS011;17676;52.254;4.490;2023-02-13T06:09:44;48.85;;;29.85;;
31004;SDS011;17676;52.254;4.490;2023-02-13T06:12:09;49.20;;;29.52;;
31004;SDS011;17676;52.254;4.490;2023-02-13T06:14:34;51.55;;;29.73;;
31004;SDS011;17676;52.254;4.490;2023-02-13T06:17:01;50.53;;;29.27;;
31004;SDS011;17676;52.254;4.490;2023-02-13T06:19:26;48.45;;;29.27;;
31004;SDS011;17676;52.254;4.490;2023-02-13T06:21:52;43.15;;;27.05;;
31004;SDS011;17676;52.254;4.490;2023-02-13T06:24:17;51.03;;;29.75;;
31004;SDS011;17676;52.254;4.490;2023-02-13T06:26:42;47.67;;;29.35;;
31004;SDS011;17676;52.254;4.490;2023-02-13T06:29:08;48.60;;;30.40;;
31004;SDS011;17676;52.254;4.490;2023-02-13T06:31:34;46.60;;;29.20;;
31004;SDS011;17676;52.254;4.490;2023-02-13T06:34:00;47.10;;;28.90;;
31004;SDS011;17676;52.254;4.490;2023-02-13T06:36:25;49.92;;;28.08;;
31004;SDS011;17676;52.254;4.490;2023-02-13T06:38:50;49.47;;;29.50;;
31004;SDS011;17676;52.254;4.490;2023-02-13T06:41:15;44.80;;;27.45;;
31004;SDS011;17676;52.254;4.490;2023-02-13T06:43:41;50.92;;;29.80;;
31004;SDS011;17676;52.254;4.490;2023-02-13T06:46:06;44.58;;;26.45;;
31004;SDS011;17676;52.254;4.490;2023-02-13T06:48:33;50.25;;;29.45;;
31004;SDS011;17676;52.254;4.490;2023-02-13T06:50:58;45.47;;;27.88;;
31004;SDS011;17676;52.254;4.490;2023-02-13T06:53:25;45.35;;;27.63;;
31004;SDS011;17676;52.254;4.490;2023-02-13T06:55:52;48.00;;;28.95;;
31004;SDS011;17676;52.254;4.490;2023-02-13T06:58:18;45.05;;;27.63;;
31004;SDS011;17676;52.254;4.490;2023-02-13T07:00:43;47.72;;;28.08;;
31004;SDS011;17676;52.254;4.490;2023-02-13T07:03:09;47.67;;;26.73;;
31004;SDS011;17676;52.254;4.490;2023-02-13T07:05:34;46.28;;;27.50;;
31004;SDS011;17676;52.254;4.490;2023-02-13T07:07:59;47.58;;;27.70;;
31004;SDS011;17676;52.254;4.490;2023-02-13T07:10:25;45.30;;;26.83;;
31004;SDS011;17676;52.254;4.490;2023-02-13T07:12:51;49.60;;;28.80;;
31004;SDS011;17676;52.254;4.490;2023-02-13T07:15:16;43.83;;;27.02;;
31004;SDS011;17676;52.254;4.490;2023-02-13T07:17:42;44.28;;;27.20;;
31004;SDS011;17676;52.254;4.490;2023-02-13T07:20:07;48.40;;;26.73;;
31004;SDS011;17676;52.254;4.490;2023-02-13T07:22:33;47.38;;;26.80;;
31004;SDS011;17676;52.254;4.490;2023-02-13T07:24:58;47.90;;;27.73;;
31004;SDS011;17676;52.254;4.490;2023-02-13T07:27:25;45.20;;;26.95;;
31004;SDS011;17676;52.254;4.490;2023-02-13T07:29:53;43.55;;;26.25;;
31004;SDS011;17676;52.254;4.490;2023-02-13T07:32:18;42.97;;;26.77;;
31004;SDS011;17676;52.254;4.490;2023-02-13T07:34:44;47.78;;;27.67;;
31004;SDS011;17676;52.254;4.490;2023-02-13T07:37:11;45.10;;;26.42;;
31004;SDS011;17676;52.254;4.490;2023-02-13T07:39:40;45.80;;;26.30;;
31004;SDS011;17676;52.254;4.490;2023-02-13T07:42:06;47.88;;;26.67;;
31004;SDS011;17676;52.254;4.490;2023-02-13T07:44:32;48.60;;;26.17;;
31004;SDS011;17676;52.254;4.490;2023-02-13T07:46:57;44.25;;;27.27;;
31004;SDS011;17676;52.254;4.490;2023-02-13T07:49:23;45.17;;;26.75;;
31004;SDS011;17676;52.254;4.490;2023-02-13T07:54:53;43.85;;;26.55;;
31004;SDS011;17676;52.254;4.490;2023-02-13T07:57:18;47.95;;;27.63;;
31004;SDS011;17676;52.254;4.490;2023-02-13T07:59:44;46.33;;;27.25;;
31004;SDS011;17676;52.254;4.490;2023-02-13T08:02:11;45.33;;;27.85;;
31004;SDS011;17676;52.254;4.490;2023-02-13T08:04:38;44.15;;;27.80;;
31004;SDS011;17676;52.254;4.490;2023-02-13T08:07:03;46.42;;;27.58;;
31004;SDS011;17676;52.254;4.490;2023-02-13T08:09:28;43.72;;;26.60;;
31004;SDS011;17676;52.254;4.490;2023-02-13T08:12:12;44.17;;;25.70;;
31004;SDS011;17676;52.254;4.490;2023-02-13T08:14:37;46.45;;;27.30;;
31004;SDS011;17676;52.254;4.490;2023-02-13T08:17:05;43.70;;;26.15;;
31004;SDS011;17676;52.254;4.490;2023-02-13T08:19:31;44.25;;;26.85;;
31004;SDS011;17676;52.254;4.490;2023-02-13T08:21:56;44.53;;;25.08;;
31004;SDS011;17676;52.254;4.490;2023-02-13T08:24:22;41.85;;;26.65;;
31004;SDS011;17676;52.254;4.490;2023-02-13T08:26:47;41.53;;;26.42;;
31004;SDS011;17676;52.254;4.490;2023-02-13T08:29:12;45.55;;;27.00;;
31004;SDS011;17676;52.254;4.490;2023-02-13T08:31:38;43.40;;;26.55;;
31004;SDS011;17676;52.254;4.490;2023-02-13T08:34:03;44.38;;;26.48;;
31004;SDS011;17676;52.254;4.490;2023-02-13T08:36:28;43.20;;;26.15;;
31004;SDS011;17676;52.254;4.490;2023-02-13T08:38:54;42.83;;;25.70;;
31004;SDS011;17676;52.254;4.490;2023-02-13T08:41:20;44.28;;;27.08;;
31004;SDS011;17676;52.254;4.490;2023-02-13T08:43:46;45.85;;;26.17;;
31004;SDS011;17676;52.254;4.490;2023-02-13T08:46:11;37.72;;;25.80;;
31004;SDS011;17676;52.254;4.490;2023-02-13T08:48:36;43.58;;;26.10;;
31004;SDS011;17676;52.254;4.490;2023-02-13T08:51:08;43.92;;;26.33;;
31004;SDS011;17676;52.254;4.490;2023-02-13T08:53:34;39.05;;;26.90;;
31004;SDS011;17676;52.254;4.490;2023-02-13T08:56:00;41.58;;;27.00;;
31004;SDS011;17676;52.254;4.490;2023-02-13T08:58:25;41.10;;;25.15;;
31004;SDS011;17676;52.254;4.490;2023-02-13T09:00:50;40.70;;;26.45;;
31004;SDS011;17676;52.254;4.490;2023-02-13T09:03:15;38.67;;;25.52;;
31004;SDS011;17676;52.254;4.490;2023-02-13T09:05:41;40.42;;;25.75;;
31004;SDS011;17676;52.254;4.490;2023-02-13T09:08:06;42.58;;;26.90;;
31004;SDS011;17676;52.254;4.490;2023-02-13T09:10:35;37.92;;;25.50;;
31004;SDS011;17676;52.254;4.490;2023-02-13T09:13:01;40.17;;;25.55;;
31004;SDS011;17676;52.254;4.490;2023-02-13T09:15:26;38.83;;;23.75;;
31004;SDS011;17676;52.254;4.490;2023-02-13T09:17:51;37.60;;;26.48;;
31004;SDS011;17676;52.254;4.490;2023-02-13T09:20:17;40.95;;;25.50;;
31004;SDS011;17676;52.254;4.490;2023-02-13T09:22:42;33.70;;;23.38;;
31004;SDS011;17676;52.254;4.490;2023-02-13T09:25:07;38.50;;;24.90;;
31004;SDS011;17676;52.254;4.490;2023-02-13T09:27:33;37.50;;;23.88;;
31004;SDS011;17676;52.254;4.490;2023-02-13T09:29:59;37.00;;;24.90;;
31004;SDS011;17676;52.254;4.490;2023-02-13T09:32:24;36.65;;;24.73;;
31004;SDS011;17676;52.254;4.490;2023-02-13T09:34:49;39.17;;;25.45;;
31004;SDS011;17676;52.254;4.490;2023-02-13T09:37:14;37.80;;;25.05;;
31004;SDS011;17676;52.254;4.490;2023-02-13T09:39:40;32.60;;;23.75;;
31004;SDS011;17676;52.254;4.490;2023-02-13T09:42:08;39.33;;;24.92;;
31004;SDS011;17676;52.254;4.490;2023-02-13T09:44:40;35.85;;;25.25;;
31004;SDS011;17676;52.254;4.490;2023-02-13T09:49:52;37.75;;;25.60;;
31004;SDS011;17676;52.254;4.490;2023-02-13T09:52:18;35.30;;;23.90;;
31004;SDS011;17676;52.254;4.490;2023-02-13T09:54:43;35.47;;;24.08;;
31004;SDS011;17676;52.254;4.490;2023-02-13T09:57:26;35.80;;;24.30;;
31004;SDS011;17676;52.254;4.490;2023-02-13T10:00:12;34.42;;;24.05;;
31004;SDS011;17676;52.254;4.490;2023-02-13T10:07:48;32.05;;;21.88;;
31004;SDS011;17676;52.254;4.490;2023-02-13T10:13:26;33.75;;;23.83;;
31004;SDS011;17676;52.254;4.490;2023-02-13T10:15:42;35.50;;;24.50;;
31004;SDS011;17676;52.254;4.490;2023-02-13T10:18:15;32.95;;;23.90;;
31004;SDS011;17676;52.254;4.490;2023-02-13T10:20:42;35.67;;;24.63;;
31004;SDS011;17676;52.254;4.490;2023-02-13T10:28:45;34.80;;;24.77;;
31004;SDS011;17676;52.254;4.490;2023-02-13T10:31:32;36.33;;;24.30;;
31004;SDS011;17676;52.254;4.490;2023-02-13T10:33:57;40.75;;;25.27;;
31004;SDS011;17676;52.254;4.490;2023-02-13T10:36:26;35.72;;;25.60;;
31004;SDS011;17676;52.254;4.490;2023-02-13T10:38:57;37.13;;;26.15;;
31004;SDS011;17676;52.254;4.490;2023-02-13T10:41:28;35.63;;;25.38;;
31004;SDS011;17676;52.254;4.490;2023-02-13T10:51:50;42.33;;;28.23;;
31004;SDS011;17676;52.254;4.490;2023-02-13T10:54:27;38.05;;;26.20;;
31004;SDS011;17676;52.254;4.490;2023-02-13T10:57:13;39.45;;;27.13;;
31004;SDS011;17676;52.254;4.490;2023-02-13T10:59:49;39.08;;;27.27;;
31004;SDS011;17676;52.254;4.490;2023-02-13T11:02:26;37.10;;;26.40;;
31004;SDS011;17676;52.254;4.490;2023-02-13T11:04:56;35.08;;;26.52;;
31004;SDS011;17676;52.254;4.490;2023-02-13T11:07:22;37.08;;;26.85;;
31004;SDS011;17676;52.254;4.490;2023-02-13T11:09:48;35.75;;;26.25;;
31004;SDS011;17676;52.254;4.490;2023-02-13T11:12:27;35.00;;;27.05;;
31004;SDS011;17676;52.254;4.490;2023-02-13T11:15:00;37.75;;;27.33;;
31004;SDS011;17676;52.254;4.490;2023-02-13T11:17:26;36.90;;;26.90;;
31004;SDS011;17676;52.254;4.490;2023-02-13T11:19:56;36.47;;;25.15;;
31004;SDS011;17676;52.254;4.490;2023-02-13T11:22:34;33.47;;;23.35;;
31004;SDS011;17676;52.254;4.490;2023-02-13T11:25:33;36.47;;;26.85;;
31004;SDS011;17676;52.254;4.490;2023-02-13T11:28:09;38.08;;;26.27;;
31004;SDS011;17676;52.254;4.490;2023-02-13T11:30:40;31.50;;;24.88;;
31004;SDS011;17676;52.254;4.490;2023-02-13T11:33:16;32.97;;;24.55;;
31004;SDS011;17676;52.254;4.490;2023-02-13T11:35:45;32.08;;;25.17;;
31004;SDS011;17676;52.254;4.490;2023-02-13T11:38:12;29.50;;;24.20;;
31004;SDS011;17676;52.254;4.490;2023-02-13T11:40:38;31.20;;;24.25;;
31004;SDS011;17676;52.254;4.490;2023-02-13T11:43:06;31.05;;;24.75;;
31004;SDS011;17676;52.254;4.490;2023-02-13T11:45:32;35.58;;;25.02;;
31004;SDS011;17676;52.254;4.490;2023-02-13T11:47:57;31.55;;;23.63;;
31004;SDS011;17676;52.254;4.490;2023-02-13T11:52:57;29.88;;;23.95;;
31004;SDS011;17676;52.254;4.490;2023-02-13T11:55:28;32.83;;;24.77;;
31004;SDS011;17676;52.254;4.490;2023-02-13T12:00:30;39.33;;;26.80;;
31004;SDS011;17676;52.254;4.490;2023-02-13T12:02:57;35.60;;;26.10;;
31004;SDS011;17676;52.254;4.490;2023-02-13T12:05:24;32.03;;;24.67;;
31004;SDS011;17676;52.254;4.490;2023-02-13T12:07:50;30.63;;;24.80;;
31004;SDS011;17676;52.254;4.490;2023-02-13T12:12:54;33.00;;;24.52;;
31004;SDS011;17676;52.254;4.490;2023-02-13T12:39:36;36.33;;;25.55;;
31004;SDS011;17676;52.254;4.490;2023-02-13T12:49:52;35.70;;;24.67;;
31004;SDS011;17676;52.254;4.490;2023-02-13T12:52:37;34.92;;;25.33;;
31004;SDS011;17676;52.254;4.490;2023-02-13T12:55:18;35.33;;;25.77;;
31004;SDS011;17676;52.254;4.490;2023-02-13T13:05:51;42.28;;;27.98;;
31004;SDS011;17676;52.254;4.490;2023-02-13T13:11:04;38.15;;;25.95;;
31004;SDS011;17676;52.254;4.490;2023-02-13T13:13:59;39.65;;;26.60;;
31004;SDS011;17676;52.254;4.490;2023-02-13T13:21:52;38.97;;;26.60;;
31004;SDS011;17676;52.254;4.490;2023-02-13T13:24:29;35.97;;;23.52;;
31004;SDS011;17676;52.254;4.490;2023-02-13T13:26:57;33.25;;;23.85;;
31004;SDS011;17676;52.254;4.490;2023-02-13T13:29:26;34.13;;;23.15;;
31004;SDS011;17676;52.254;4.490;2023-02-13T13:31:59;34.05;;;23.45;;
31004;SDS011;17676;52.254;4.490;2023-02-13T13:34:26;35.60;;;24.60;;
31004;SDS011;17676;52.254;4.490;2023-02-13T13:41:59;35.10;;;24.45;;
31004;SDS011;17676;52.254;4.490;2023-02-13T13:52:07;31.25;;;22.88;;
31004;SDS011;17676;52.254;4.490;2023-02-13T13:54:33;33.40;;;24.23;;
31004;SDS011;17676;52.254;4.490;2023-02-13T14:04:42;30.45;;;22.25;;
31004;SDS011;17676;52.254;4.490;2023-02-13T14:07:23;33.22;;;21.77;;
31004;SDS011;17676;52.254;4.490;2023-02-13T14:09:49;33.08;;;21.20;;
31004;SDS011;17676;52.254;4.490;2023-02-13T14:14:49;34.42;;;21.70;;
31004;SDS011;17676;52.254;4.490;2023-02-13T14:17:15;26.25;;;20.30;;
31004;SDS011;17676;52.254;4.490;2023-02-13T14:19:42;30.25;;;21.25;;
31004;SDS011;17676;52.254;4.490;2023-02-13T14:24:49;32.53;;;20.73;;
31004;SDS011;17676;52.254;4.490;2023-02-13T14:27:36;30.25;;;22.02;;
31004;SDS011;17676;52.254;4.490;2023-02-13T14:30:01;30.27;;;20.75;;
31004;SDS011;17676;52.254;4.490;2023-02-13T14:34:56;28.52;;;19.75;;
31004;SDS011;17676;52.254;4.490;2023-02-13T14:37:33;29.17;;;19.77;;
31004;SDS011;17676;52.254;4.490;2023-02-13T14:42:39;25.10;;;19.40;;
31004;SDS011;17676;52.254;4.490;2023-02-13T14:45:12;28.67;;;20.58;;
31004;SDS011;17676;52.254;4.490;2023-02-13T14:47:41;30.17;;;19.98;;
31004;SDS011;17676;52.254;4.490;2023-02-13T14:50:13;27.50;;;18.95;;
31004;SDS011;17676;52.254;4.490;2023-02-13T14:52:39;26.17;;;18.77;;
31004;SDS011;17676;52.254;4.490;2023-02-13T14:55:15;24.98;;;16.92;;
31004;SDS011;17676;52.254;4.490;2023-02-13T14:57:42;27.98;;;18.40;;
31004;SDS011;17676;52.254;4.490;2023-02-13T15:00:27;29.17;;;19.80;;
31004;SDS011;17676;52.254;4.490;2023-02-13T15:02:57;24.58;;;16.42;;
31004;SDS011;17676;52.254;4.490;2023-02-13T15:10:46;23.80;;;17.48;;
31004;SDS011;17676;52.254;4.490;2023-02-13T15:13:12;21.95;;;16.30;;
31004;SDS011;17676;52.254;4.490;2023-02-13T15:15:39;22.80;;;15.70;;
31004;SDS011;17676;52.254;4.490;2023-02-13T15:18:09;20.17;;;14.98;;
31004;SDS011;17676;52.254;4.490;2023-02-13T15:20:36;22.63;;;16.15;;
31004;SDS011;17676;52.254;4.490;2023-02-13T15:23:02;22.30;;;15.38;;
31004;SDS011;17676;52.254;4.490;2023-02-13T15:25:31;24.88;;;17.52;;
31004;SDS011;17676;52.254;4.490;2023-02-13T15:27:58;22.73;;;16.08;;
31004;SDS011;17676;52.254;4.490;2023-02-13T15:30:30;22.88;;;16.30;;
31004;SDS011;17676;52.254;4.490;2023-02-13T15:33:00;23.40;;;16.20;;
31004;SDS011;17676;52.254;4.490;2023-02-13T15:35:29;22.90;;;16.05;;
31004;SDS011;17676;52.254;4.490;2023-02-13T15:37:55;22.67;;;14.68;;
31004;SDS011;17676;52.254;4.490;2023-02-13T15:42:47;22.73;;;16.38;;
31004;SDS011;17676;52.254;4.490;2023-02-13T15:45:13;24.33;;;16.40;;
31004;SDS011;17676;52.254;4.490;2023-02-13T15:47:38;24.20;;;17.23;;
31004;SDS011;17676;52.254;4.490;2023-02-13T15:50:04;25.02;;;16.58;;
31004;SDS011;17676;52.254;4.490;2023-02-13T15:52:38;21.65;;;14.88;;
31004;SDS011;17676;52.254;4.490;2023-02-13T15:55:03;25.83;;;16.80;;
31004;SDS011;17676;52.254;4.490;2023-02-13T15:57:29;24.63;;;17.85;;
31004;SDS011;17676;52.254;4.490;2023-02-13T15:59:55;25.63;;;17.63;;
31004;SDS011;17676;52.254;4.490;2023-02-13T16:02:22;23.73;;;17.45;;
31004;SDS011;17676;52.254;4.490;2023-02-13T16:04:50;24.02;;;17.50;;
31004;SDS011;17676;52.254;4.490;2023-02-13T16:07:17;28.35;;;18.60;;
31004;SDS011;17676;52.254;4.490;2023-02-13T16:09:45;24.67;;;17.65;;
31004;SDS011;17676;52.254;4.490;2023-02-13T16:14:44;26.92;;;18.17;;
31004;SDS011;17676;52.254;4.490;2023-02-13T16:17:15;24.48;;;17.30;;
31004;SDS011;17676;52.254;4.490;2023-02-13T16:22:16;28.20;;;19.05;;
31004;SDS011;17676;52.254;4.490;2023-02-13T16:24:50;27.10;;;18.75;;
31004;SDS011;17676;52.254;4.490;2023-02-13T16:27:20;27.20;;;18.55;;
31004;SDS011;17676;52.254;4.490;2023-02-13T16:29:49;27.33;;;19.60;;
31004;SDS011;17676;52.254;4.490;2023-02-13T16:32:17;29.10;;;19.13;;
31004;SDS011;17676;52.254;4.490;2023-02-13T16:34:46;29.08;;;19.13;;
31004;SDS011;17676;52.254;4.490;2023-02-13T16:37:26;28.25;;;20.10;;
31004;SDS011;17676;52.254;4.490;2023-02-13T16:39:52;30.90;;;20.85;;
31004;SDS011;17676;52.254;4.490;2023-02-13T16:42:18;29.13;;;20.50;;
31004;SDS011;17676;52.254;4.490;2023-02-13T16:44:43;29.67;;;19.85;;
31004;SDS011;17676;52.254;4.490;2023-02-13T16:47:15;27.10;;;20.25;;
31004;SDS011;17676;52.254;4.490;2023-02-13T16:49:49;29.70;;;20.75;;
31004;SDS011;17676;52.254;4.490;2023-02-13T16:52:16;35.88;;;21.65;;
31004;SDS011;17676;52.254;4.490;2023-02-13T17:04:32;34.58;;;22.27;;
31004;SDS011;17676;52.254;4.490;2023-02-13T17:06:58;31.73;;;22.55;;
31004;SDS011;17676;52.254;4.490;2023-02-13T17:09:23;32.33;;;22.25;;
31004;SDS011;17676;52.254;4.490;2023-02-13T17:11:52;35.83;;;22.38;;
31004;SDS011;17676;52.254;4.490;2023-02-13T17:14:18;35.20;;;23.30;;
31004;SDS011;17676;52.254;4.490;2023-02-13T17:16:44;36.97;;;23.20;;
31004;SDS011;17676;52.254;4.490;2023-02-13T17:19:10;34.53;;;23.90;;
31004;SDS011;17676;52.254;4.490;2023-02-13T17:21:35;34.15;;;23.42;;
31004;SDS011;17676;52.254;4.490;2023-02-13T17:24:00;35.90;;;23.10;;
31004;SDS011;17676;52.254;4.490;2023-02-13T17:26:26;38.10;;;23.77;;